Time;durP1;ratioP1;P1;durP2;ratioP2;P2;SDS_P1;SDS_P2;PMS_P1;PMS_P2;Temp;Humidity;BMP_temperature;BMP_pressure;BME280_temperature;BME280_humidity;BME280_pressure;Samples;Min_cycle;Max_cycle;Signal;HPM_P1;HPM_P2
2023/10/03 00:00:36;;;;;;;13.93;4.72;;;;;;;11.31;68.44;97359.09;5094129;28;20497;-65
2023/10/03 00:03:08;;;;;;;9.15;4.40;;;;;;;11.23;68.34;97365.41;5094022;28;20155;-63
2023/10/03 00:05:36;;;;;;;8.02;4.63;;;;;;;11.08;68.64;97363.22;5094085;28;20097;-65
2023/10/03 00:08:05;;;;;;;7.13;3.72;;;;;;;11.08;68.93;97365.84;5093338;28;20059;-64
2023/10/03 00:10:33;;;;;;;10.07;4.10;;;;;;;11.04;69.02;97362.44;5093991;28;20127;-66
2023/10/03 00:13:00;;;;;;;8.52;4.13;;;;;;;11.01;68.90;97362.50;5093888;28;20055;-63
2023/10/03 00:15:28;;;;;;;7.72;4.15;;;;;;;10.96;68.58;97367.03;5093944;28;20045;-65
2023/10/03 00:17:56;;;;;;;7.75;4.38;;;;;;;10.95;68.42;97371.38;5094307;28;20048;-63
2023/10/03 00:20:25;;;;;;;7.68;3.85;;;;;;;10.93;68.58;97367.94;5093915;28;20097;-66
2023/10/03 00:22:52;;;;;;;13.07;4.22;;;;;;;10.91;68.23;97368.88;5093894;28;20040;-66
2023/10/03 00:25:23;;;;;;;6.72;3.92;;;;;;;10.87;68.33;97375.97;5093694;28;20577;-65
2023/10/03 00:27:52;;;;;;;9.70;4.45;;;;;;;10.81;68.77;97373.50;5093570;28;20052;-65
2023/10/03 00:30:20;;;;;;;13.57;4.45;;;;;;;10.73;68.73;97374.56;5093846;28;20490;-63
2023/10/03 00:32:48;;;;;;;6.82;3.92;;;;;;;10.70;68.99;97374.66;5093800;28;20493;-62
2023/10/03 00:35:17;;;;;;;7.35;4.07;;;;;;;10.62;68.78;97368.72;5093749;28;20127;-63
2023/10/03 00:37:46;;;;;;;9.23;4.15;;;;;;;10.58;68.74;97372.31;5093730;28;20545;-66
2023/10/03 00:40:25;;;;;;;5.18;3.53;;;;;;;10.55;68.97;97372.41;5093585;28;20040;-65
2023/10/03 00:42:57;;;;;;;6.57;3.90;;;;;;;10.53;68.90;97366.38;5093506;28;20137;-63
2023/10/03 00:45:25;;;;;;;8.05;4.53;;;;;;;10.53;69.05;97374.22;5093539;28;20080;-63
2023/10/03 00:47:53;;;;;;;9.75;4.40;;;;;;;10.50;69.07;97369.88;5093730;28;20043;-66
2023/10/03 00:50:20;;;;;;;7.85;3.90;;;;;;;10.48;69.00;97372.53;5093465;28;20144;-63
2023/10/03 00:52:53;;;;;;;8.38;3.90;;;;;;;10.48;69.14;97371.69;5093211;28;20060;-64
2023/10/03 00:55:21;;;;;;;6.70;3.95;;;;;;;10.49;69.10;97378.66;5093409;28;20040;-63
2023/10/03 00:57:48;;;;;;;10.90;4.65;;;;;;;10.44;69.05;97375.25;5093345;28;20044;-64
2023/10/03 01:00:16;;;;;;;12.00;4.90;;;;;;;10.40;68.98;97374.47;5093234;28;20048;-65
2023/10/03 01:02:52;;;;;;;14.32;3.63;;;;;;;10.35;68.89;97371.97;5093153;28;20447;-65
2023/10/03 01:05:20;;;;;;;10.73;4.38;;;;;;;10.27;69.36;97373.91;5093277;28;20486;-66
2023/10/03 01:07:49;;;;;;;8.23;4.45;;;;;;;10.23;69.57;97369.63;5093114;28;20044;-66
2023/10/03 01:10:18;;;;;;;8.52;3.63;;;;;;;10.11;69.59;97371.63;5093236;28;20379;-63
2023/10/03 01:12:46;;;;;;;10.43;4.55;;;;;;;10.07;69.68;97375.22;5093123;28;20071;-64
2023/10/03 01:15:18;;;;;;;9.45;3.85;;;;;;;10.07;69.75;97367.38;5093132;28;20444;-66
2023/10/03 01:17:48;;;;;;;7.28;3.75;;;;;;;9.96;69.88;97370.22;5093145;28;20040;-65
2023/10/03 01:20:24;;;;;;;11.82;4.15;;;;;;;9.80;70.52;97364.47;5096293;28;20040;-62
2023/10/03 01:22:54;;;;;;;8.48;4.07;;;;;;;9.69;71.54;97369.09;5097554;28;20082;-62
2023/10/03 01:25:27;;;;;;;8.38;4.13;;;;;;;9.65;71.86;97368.28;5097177;28;20101;-65
2023/10/03 01:27:54;;;;;;;15.32;4.00;;;;;;;9.63;71.69;97364.00;5097019;28;20130;-62
2023/10/03 01:30:21;;;;;;;10.25;4.18;;;;;;;9.67;71.64;97356.06;5097190;28;20083;-63
2023/10/03 01:32:55;;;;;;;11.25;4.22;;;;;;;9.67;71.30;97370.88;5097091;28;20052;-63
2023/10/03 01:35:22;;;;;;;10.75;4.43;;;;;;;9.68;70.56;97364.75;5097059;28;20052;-66
2023/10/03 01:37:50;;;;;;;9.35;3.58;;;;;;;9.61;70.64;97364.84;5096963;28;20121;-65
2023/10/03 01:40:17;;;;;;;10.40;3.63;;;;;;;9.60;70.51;97367.50;5097098;28;20113;-65
2023/10/03 01:42:47;;;;;;;8.57;4.05;;;;;;;9.55;70.76;97361.53;5097195;28;20127;-63
2023/10/03 01:45:17;;;;;;;7.15;3.00;;;;;;;9.50;71.17;97360.75;5096877;28;20052;-62
2023/10/03 01:47:47;;;;;;;9.70;4.25;;;;;;;9.45;71.34;97366.09;5096754;28;20402;-62
2023/10/03 01:50:14;;;;;;;;;;;;;;;9.49;71.30;97362.53;5097281;28;20557;-64
2023/10/03 01:52:42;;;;;;;11.27;4.20;;;;;;;9.39;71.65;97356.59;5096676;28;20316;-64
2023/10/03 01:55:12;;;;;;;8.75;3.92;;;;;;;9.39;72.19;97358.38;5096545;28;20413;-63
2023/10/03 01:57:39;;;;;;;12.40;3.95;;;;;;;9.38;71.69;97359.25;5096731;28;20044;-62
2023/10/03 02:00:21;;;;;;;9.43;4.90;;;;;;;9.33;71.52;97354.16;5096860;28;20431;-62
2023/10/03 02:02:49;;;;;;;7.65;3.97;;;;;;;9.28;71.83;97358.59;5096569;28;20066;-61
2023/10/03 02:05:17;;;;;;;9.27;3.58;;;;;;;9.28;71.91;97353.38;5096515;28;20044;-63
2023/10/03 02:07:45;;;;;;;11.25;4.15;;;;;;;9.26;72.31;97355.13;5096418;28;20055;-65
2023/10/03 02:10:14;;;;;;;9.02;3.67;;;;;;;9.23;72.52;97358.66;5096335;28;20051;-66
2023/10/03 02:12:48;;;;;;;12.77;4.75;;;;;;;9.16;72.74;97357.06;5096547;28;20056;-62
2023/10/03 02:15:21;;;;;;;7.90;3.97;;;;;;;9.13;72.93;97347.56;5096275;28;20044;-62
2023/10/03 02:17:50;;;;;;;7.45;4.05;;;;;;;9.14;72.98;97358.84;5096201;28;20063;-64
2023/10/03 02:20:20;;;;;;;11.10;3.90;;;;;;;9.09;72.85;97353.69;5096162;28;20136;-60
2023/10/03 02:22:53;;;;;;;10.23;4.70;;;;;;;9.01;73.20;97353.00;5096137;28;20047;-65
2023/10/03 02:25:22;;;;;;;9.68;4.22;;;;;;;9.04;72.94;97355.56;5096083;28;20055;-63
2023/10/03 02:27:50;;;;;;;9.27;4.70;;;;;;;9.01;72.90;97364.31;5096001;28;20044;-65
2023/10/03 02:30:23;;;;;;;8.23;4.65;;;;;;;8.97;73.15;97357.41;5095342;28;20080;-65
2023/10/03 02:32:53;;;;;;;9.52;4.25;;;;;;;8.88;73.69;97358.44;5096014;28;20056;-62
2023/10/03 02:35:22;;;;;;;11.63;5.55;;;;;;;8.93;73.79;97363.56;5096184;28;20040;-66
2023/10/03 02:37:51;;;;;;;8.77;4.32;;;;;;;8.97;73.20;97368.72;5096138;28;20056;-66
2023/10/03 02:40:22;;;;;;;12.50;4.80;;;;;;;8.94;73.12;97366.16;5096046;28;20405;-65
2023/10/03 02:42:51;;;;;;;8.35;5.13;;;;;;;8.91;73.19;97368.81;5095747;28;20559;-63
2023/10/03 02:45:22;;;;;;;10.38;4.78;;;;;;;8.82;73.62;97369.84;5095750;28;20072;-65
2023/10/03 02:47:51;;;;;;;14.20;4.88;;;;;;;8.82;73.81;97369.84;5095670;28;20048;-66
2023/10/03 02:50:19;;;;;;;8.90;5.10;;;;;;;8.72;74.45;97378.72;5095545;28;20406;-61
2023/10/03 02:52:46;;;;;;;9.25;5.20;;;;;;;8.65;74.39;97375.38;5095930;28;20048;-65
2023/10/03 02:55:16;;;;;;;9.65;4.93;;;;;;;8.62;74.76;97374.56;5095531;28;20052;-66
2023/10/03 02:57:44;;;;;;;9.65;3.42;;;;;;;8.62;75.00;97380.66;5095545;28;20578;-66
2023/10/03 03:00:14;;;;;;;9.75;4.75;;;;;;;8.64;74.63;97384.06;5095566;28;20052;-64
2023/10/03 03:02:46;;;;;;;9.00;4.40;;;;;;;8.62;73.92;97375.44;5095300;28;20040;-63
2023/10/03 03:05:16;;;;;;;8.82;5.00;;;;;;;8.59;73.91;97376.34;5095506;28;20051;-63
2023/10/03 03:07:46;;;;;;;8.02;4.93;;;;;;;8.54;74.43;97383.38;5095262;28;20496;-65
2023/10/03 03:10:16;;;;;;;12.25;5.90;;;;;;;8.51;74.93;97377.28;5095417;28;20135;-63
2023/10/03 03:13:02;;;;;;;11.90;5.30;;;;;;;8.46;74.90;97377.41;5095301;28;20105;-65
2023/10/03 03:15:31;;;;;;;10.77;5.82;;;;;;;8.50;75.16;97378.19;5095115;28;20055;-63
2023/10/03 03:18:00;;;;;;;11.45;4.90;;;;;;;8.49;75.01;97373.88;5095037;28;20504;-62
2023/10/03 03:20:36;;;;;;;9.98;5.45;;;;;;;8.45;74.77;97371.31;5095118;28;20102;-65
2023/10/03 03:23:05;;;;;;;8.27;5.13;;;;;;;8.47;74.78;97369.56;5095465;28;20044;-63
2023/10/03 03:25:37;;;;;;;10.15;5.53;;;;;;;8.48;74.62;97373.00;5094920;28;20486;-63
2023/10/03 03:28:12;;;;;;;11.10;5.45;;;;;;;8.47;74.30;97364.34;5094923;28;20402;-62
2023/10/03 03:30:45;;;;;;;9.13;5.22;;;;;;;8.47;74.29;97364.34;5094731;28;20044;-63
2023/10/03 03:33:19;;;;;;;11.70;5.72;;;;;;;8.46;74.53;97367.81;5094809;28;20073;-63
2023/10/03 03:35:47;;;;;;;6.60;4.78;;;;;;;8.44;75.03;97368.72;5094897;28;20051;-63
2023/10/03 03:38:18;;;;;;;12.85;6.13;;;;;;;8.45;75.16;97373.91;5094805;28;20101;-65
2023/10/03 03:40:47;;;;;;;9.07;5.10;;;;;;;8.43;75.16;97370.47;5094776;28;20048;-64
2023/10/03 03:43:16;;;;;;;8.65;5.45;;;;;;;8.47;75.13;97364.34;5093696;28;20048;-64
2023/10/03 03:45:44;;;;;;;8.57;5.22;;;;;;;8.44;75.46;97363.50;5094606;28;20055;-63
2023/10/03 03:48:13;;;;;;;7.97;5.07;;;;;;;8.43;75.11;97372.22;5094445;28;20083;-64
2023/10/03 03:50:42;;;;;;;8.60;4.95;;;;;;;8.43;75.37;97361.81;5094352;28;20060;-66
2023/10/03 03:53:10;;;;;;;10.27;5.75;;;;;;;8.41;75.75;97367.03;5094360;28;20079;-63
2023/10/03 03:55:39;;;;;;;7.32;4.43;;;;;;;8.32;76.06;97357.63;5094573;28;20093;-66
2023/10/03 03:58:11;;;;;;;12.77;5.75;;;;;;;8.28;76.45;97355.09;5094422;28;20044;-63
2023/10/03 04:00:39;;;;;;;10.23;5.55;;;;;;;8.28;75.90;97361.13;5094462;28;20040;-66
2023/10/03 04:03:11;;;;;;;11.27;5.57;;;;;;;8.22;75.99;97356.03;5094173;28;20417;-64
2023/10/03 04:05:39;;;;;;;8.93;5.82;;;;;;;8.12;76.62;97357.06;5094176;28;20134;-65
2023/10/03 04:08:08;;;;;;;11.13;6.20;;;;;;;8.12;76.92;97357.06;5094064;28;20052;-63
2023/10/03 04:10:37;;;;;;;9.90;5.38;;;;;;;8.15;76.56;97359.59;5094052;28;20146;-63
2023/10/03 04:13:09;;;;;;;12.13;5.93;;;;;;;8.15;76.62;97349.19;5094029;28;20055;-63
2023/10/03 04:15:39;;;;;;;15.57;5.82;;;;;;;8.19;76.79;97356.09;5093992;28;20102;-65
2023/10/03 04:18:08;;;;;;;9.57;4.95;;;;;;;8.21;77.05;97359.50;5094068;28;20151;-65
2023/10/03 04:20:37;;;;;;;13.85;5.97;;;;;;;8.20;76.91;97352.59;5094050;28;20139;-64
2023/10/03 04:23:06;;;;;;;10.82;5.97;;;;;;;8.19;76.87;97358.69;5093816;28;20048;-63
2023/10/03 04:25:37;;;;;;;15.60;5.53;;;;;;;8.25;77.16;97355.13;5093861;28;20048;-61
2023/10/03 04:28:05;;;;;;;10.98;5.50;;;;;;;8.22;77.17;97359.50;5093736;28;20050;-62
2023/10/03 04:30:33;;;;;;;13.70;5.45;;;;;;;8.24;77.05;97354.25;5093633;28;20048;-63
2023/10/03 04:33:00;;;;;;;12.00;5.30;;;;;;;8.32;76.72;97359.34;5093755;28;20052;-62
2023/10/03 04:35:28;;;;;;;12.10;5.57;;;;;;;8.36;77.36;97366.25;5093605;28;20055;-62
2023/10/03 04:37:57;;;;;;;9.52;5.10;;;;;;;8.40;76.97;97361.84;5093698;28;20044;-66
2023/10/03 04:40:28;;;;;;;9.27;4.88;;;;;;;8.34;77.17;97363.66;5093780;28;20394;-65
2023/10/03 04:42:57;;;;;;;11.30;5.90;;;;;;;8.29;78.19;97368.09;5093553;28;20398;-62
2023/10/03 04:45:25;;;;;;;16.40;5.93;;;;;;;8.33;78.21;97374.97;5093574;28;20046;-64
2023/10/03 04:47:52;;;;;;;8.30;5.00;;;;;;;8.46;78.05;97377.41;5093453;28;20055;-63
2023/10/03 04:50:25;;;;;;;13.45;5.22;;;;;;;8.61;77.07;97380.66;5093280;28;20052;-64
2023/10/03 04:52:53;;;;;;;10.18;5.70;;;;;;;8.63;77.19;97374.53;5093385;28;20048;-63
2023/10/03 04:55:22;;;;;;;9.65;5.07;;;;;;;8.68;76.72;97377.06;5093027;28;20079;-62
2023/10/03 04:57:51;;;;;;;9.13;5.70;;;;;;;8.72;77.34;97370.91;5093264;28;20048;-65
2023/10/03 05:00:21;;;;;;;11.45;5.75;;;;;;;8.81;77.28;97375.09;5093109;28;20459;-63
2023/10/03 05:02:50;;;;;;;10.40;5.13;;;;;;;8.94;77.00;97374.00;5093007;28;20048;-65
2023/10/03 05:05:20;;;;;;;;;;;;;;;9.24;76.84;97378.66;5093687;28;20044;-63
2023/10/03 05:07:49;;;;;;;9.88;4.45;;;;;;;9.85;75.19;97378.28;5093261;28;20014;-61
2023/10/03 05:10:17;;;;;;;7.88;4.80;;;;;;;10.64;71.97;97374.78;5093212;28;20047;-61
2023/10/03 05:12:46;;;;;;;8.18;4.18;;;;;;;11.49;68.05;97386.53;5093189;28;20121;-64
2023/10/03 05:15:14;;;;;;;8.25;4.43;;;;;;;12.35;65.01;97390.16;5093511;28;20077;-63
2023/10/03 05:17:43;;;;;;;5.90;4.15;;;;;;;13.12;61.82;97387.63;5093312;28;20094;-61
2023/10/03 05:20:13;;;;;;;9.27;4.00;;;;;;;13.79;59.25;97393.19;5093064;28;20048;-63
2023/10/03 05:22:41;;;;;;;9.07;4.03;;;;;;;14.34;57.38;97385.84;5093160;28;20055;-66
2023/10/03 05:25:12;;;;;;;12.02;4.40;;;;;;;14.93;56.37;97396.63;5093036;28;20048;-65
2023/10/03 05:27:40;;;;;;;12.00;4.15;;;;;;;15.59;54.62;97402.59;5093094;28;20136;-61
2023/10/03 05:30:09;;;;;;;9.07;4.28;;;;;;;16.22;52.65;97410.41;5092918;28;20105;-63
2023/10/03 05:32:36;;;;;;;6.93;3.90;;;;;;;16.71;51.72;97419.53;5092933;28;20094;-65
2023/10/03 05:35:06;;;;;;;6.30;4.30;;;;;;;17.21;50.15;97410.00;5093248;28;20044;-63
2023/10/03 05:37:34;;;;;;;8.85;4.95;;;;;;;17.91;49.03;97413.47;5092924;28;20052;-65
2023/10/03 05:40:15;;;;;;;9.90;4.47;;;;;;;18.56;47.62;97417.88;5093042;28;20097;-64
2023/10/03 05:42:45;;;;;;;7.43;4.40;;;;;;;19.12;45.99;97413.84;5092852;28;20047;-65
2023/10/03 05:45:13;;;;;;;7.50;4.10;;;;;;;19.60;45.34;97418.09;5092962;28;20045;-64
2023/10/03 05:47:44;;;;;;;10.57;4.10;;;;;;;20.12;44.24;97421.16;5092810;28;20276;-63
2023/10/03 05:50:14;;;;;;;8.57;4.35;;;;;;;20.62;43.96;97425.09;5092748;28;20516;-66
2023/10/03 05:52:43;;;;;;;9.52;4.07;;;;;;;21.11;42.83;97429.00;5092862;28;20447;-66
2023/10/03 05:55:11;;;;;;;16.20;4.70;;;;;;;21.66;41.46;97417.34;5092704;28;20494;-63
2023/10/03 05:57:41;;;;;;;9.55;4.25;;;;;;;22.16;41.40;97419.25;5092743;28;20048;-66
2023/10/03 06:00:09;;;;;;;9.00;4.03;;;;;;;22.71;39.50;97422.41;5092705;28;20474;-65
2023/10/03 06:02:41;;;;;;;10.02;3.95;;;;;;;23.13;39.00;97426.44;5092575;28;20048;-65
2023/10/03 06:05:11;;;;;;;12.70;5.20;;;;;;;23.54;37.77;97423.44;5092875;28;20056;-64
2023/10/03 06:07:41;;;;;;;10.85;4.57;;;;;;;24.01;36.71;97433.16;5096385;28;20048;-63
2023/10/03 06:10:10;;;;;;;11.95;4.20;;;;;;;24.49;35.82;97440.06;5096329;28;20059;-65
2023/10/03 06:12:37;;;;;;;9.90;5.00;;;;;;;24.92;34.73;97438.41;5096525;28;20048;-64
2023/10/03 06:15:06;;;;;;;9.15;5.10;;;;;;;25.39;34.07;97444.38;5096335;28;20045;-66
2023/10/03 06:17:33;;;;;;;7.97;4.32;;;;;;;25.79;33.41;97437.50;5096388;28;20126;-63
2023/10/03 06:20:00;;;;;;;9.50;4.70;;;;;;;26.17;33.01;97435.09;5096412;28;20048;-67
2023/10/03 06:22:28;;;;;;;9.02;5.50;;;;;;;26.54;32.07;97441.72;5096246;28;20101;-64
2023/10/03 06:24:58;;;;;;;8.80;4.75;;;;;;;26.86;32.08;97443.34;5096026;28;20113;-65
2023/10/03 06:27:26;;;;;;;8.80;4.70;;;;;;;27.26;30.99;97441.53;5096178;28;20051;-66
2023/10/03 06:29:54;;;;;;;8.65;5.30;;;;;;;27.61;30.55;97448.13;5095947;28;20040;-66
2023/10/03 06:32:21;;;;;;;13.65;4.57;;;;;;;27.90;29.75;97443.69;5096029;28;20052;-65
2023/10/03 06:34:48;;;;;;;10.88;4.55;;;;;;;28.25;29.99;97438.59;5095952;28;20048;-67
2023/10/03 06:37:16;;;;;;;11.30;4.82;;;;;;;28.49;30.00;97439.91;5095981;28;20047;-66
2023/10/03 06:39:44;;;;;;;8.40;4.80;;;;;;;28.76;28.88;97447.13;5096015;28;20052;-63
2023/10/03 06:42:13;;;;;;;9.20;4.78;;;;;;;29.01;28.53;97450.06;5095628;28;20051;-63
2023/10/03 06:44:40;;;;;;;6.68;4.15;;;;;;;29.13;28.17;97450.69;5095755;28;20142;-64
2023/10/03 06:47:08;;;;;;;8.13;4.72;;;;;;;29.06;28.07;97448.75;5095814;28;20046;-62
2023/10/03 06:49:35;;;;;;;6.57;4.10;;;;;;;29.08;28.14;97447.59;5095689;28;20075;-62
2023/10/03 06:52:03;;;;;;;7.97;4.53;;;;;;;28.88;27.92;97452.25;5095563;28;20493;-63
2023/10/03 06:54:30;;;;;;;12.88;5.00;;;;;;;28.62;28.38;97447.63;5095538;28;20084;-66
2023/10/03 06:56:57;;;;;;;8.75;4.13;;;;;;;28.58;28.65;97440.84;5095548;28;20087;-64
2023/10/03 06:59:26;;;;;;;9.95;4.40;;;;;;;28.39;28.28;97450.75;5095603;28;20052;-65
2023/10/03 07:01:54;;;;;;;7.40;4.25;;;;;;;28.24;28.64;97448.50;5095508;28;20050;-61
2023/10/03 07:04:21;;;;;;;11.77;4.35;;;;;;;28.22;28.68;97439.75;5095311;28;20048;-63
2023/10/03 07:06:50;;;;;;;11.20;4.72;;;;;;;28.35;28.58;97449.34;5095516;28;20508;-63
2023/10/03 07:09:18;;;;;;;12.10;4.45;;;;;;;28.38;28.19;97441.81;5095289;28;20405;-65
2023/10/03 07:11:48;;;;;;;9.10;4.88;;;;;;;28.34;28.55;97450.31;5095294;28;20051;-66
2023/10/03 07:14:16;;;;;;;11.95;4.93;;;;;;;28.29;28.13;97449.91;5095417;28;20044;-62
2023/10/03 07:16:47;;;;;;;8.13;4.45;;;;;;;28.29;28.07;97448.09;5095132;28;20048;-66
2023/10/03 07:19:15;;;;;;;10.35;4.70;;;;;;;28.13;28.42;97443.31;5095030;28;20044;-65
2023/10/03 07:21:43;;;;;;;10.98;4.13;;;;;;;27.74;28.23;97450.53;5095190;28;20087;-66
2023/10/03 07:24:10;;;;;;;8.50;4.43;;;;;;;27.57;28.19;97443.19;5095031;28;20047;-65
2023/10/03 07:26:42;;;;;;;10.88;3.95;;;;;;;27.55;28.41;97445.16;5094957;28;20142;-62
2023/10/03 07:29:10;;;;;;;7.32;4.15;;;;;;;27.58;28.48;97447.56;5094972;28;20059;-62
2023/10/03 07:31:37;;;;;;;15.27;4.35;;;;;;;27.50;28.03;97446.44;5094772;28;20044;-61
2023/10/03 07:34:07;;;;;;;11.73;4.22;;;;;;;27.41;27.48;97446.44;5094734;28;20172;-63
2023/10/03 07:36:36;;;;;;;8.05;4.13;;;;;;;26.85;28.18;97444.34;5094919;28;20054;-65
2023/10/03 07:39:05;;;;;;;11.25;4.60;;;;;;;26.33;28.50;97437.28;5094644;28;20077;-66
2023/10/03 07:41:33;;;;;;;11.05;4.93;;;;;;;25.92;29.14;97446.16;5094579;28;20048;-64
2023/10/03 07:44:01;;;;;;;16.98;4.80;;;;;;;25.54;29.84;97442.25;5094657;28;20052;-65
2023/10/03 07:46:29;;;;;;;8.10;4.03;;;;;;;25.10;30.71;97441.38;5094504;28;20048;-63
2023/10/03 07:48:56;;;;;;;17.23;3.65;;;;;;;24.72;32.62;97448.06;5094478;28;20048;-64
2023/10/03 07:51:29;;;;;;;10.57;4.47;;;;;;;24.42;32.16;97439.75;5094490;28;20048;-63
2023/10/03 07:53:57;;;;;;;11.65;4.05;;;;;;;24.38;32.16;97434.75;5094378;28;20485;-64
2023/10/03 07:56:30;;;;;;;8.20;4.60;;;;;;;24.56;31.06;97446.63;5094308;28;20570;-64
2023/10/03 07:59:01;;;;;;;13.10;4.30;;;;;;;24.74;32.15;97441.59;5094343;28;20473;-63
2023/10/03 08:01:30;;;;;;;14.20;4.53;;;;;;;25.04;31.34;97446.41;5094314;28;20048;-63
2023/10/03 08:03:58;;;;;;;9.75;4.47;;;;;;;25.01;30.23;97441.31;5094055;28;20122;-62
2023/10/03 08:06:33;;;;;;;11.98;4.63;;;;;;;24.99;31.01;97442.25;5094241;28;20048;-66
2023/10/03 08:09:00;;;;;;;11.48;4.20;;;;;;;25.14;31.41;97441.13;5094165;28;20048;-63
2023/10/03 08:11:29;;;;;;;15.80;4.40;;;;;;;24.96;30.54;97439.84;5094010;28;20044;-66
2023/10/03 08:13:57;;;;;;;13.23;4.45;;;;;;;24.83;30.34;97441.81;5093997;28;20055;-65
2023/10/03 08:16:24;;;;;;;13.07;4.40;;;;;;;24.47;31.04;97444.72;5093822;28;20075;-61
2023/10/03 08:18:57;;;;;;;12.63;4.60;;;;;;;24.49;32.96;97434.72;5093771;28;20138;-63
2023/10/03 08:21:27;;;;;;;7.20;4.00;;;;;;;24.82;31.96;97442.78;5094210;28;20048;-64
2023/10/03 08:23:55;;;;;;;10.48;4.25;;;;;;;25.02;31.39;97434.97;5093913;28;20550;-63
2023/10/03 08:26:23;;;;;;;11.25;4.57;;;;;;;25.33;31.99;97435.91;5094070;28;20599;-63
2023/10/03 08:28:59;;;;;;;11.05;4.95;;;;;;;25.58;30.39;97438.31;5093103;28;20521;-64
2023/10/03 08:31:27;;;;;;;14.95;5.15;;;;;;;25.78;30.10;97431.28;5093649;28;20079;-64
2023/10/03 08:33:55;;;;;;;9.95;4.72;;;;;;;25.64;30.44;97432.47;5093700;28;20132;-65
2023/10/03 08:36:23;;;;;;;14.45;4.97;;;;;;;25.59;30.18;97424.81;5093611;28;20485;-65
2023/10/03 08:38:51;;;;;;;8.60;4.60;;;;;;;25.34;29.64;97434.94;5093569;28;20059;-62
2023/10/03 08:41:29;;;;;;;10.63;4.78;;;;;;;25.03;31.36;97434.84;5093579;28;20401;-65
2023/10/03 08:43:59;;;;;;;15.73;4.47;;;;;;;24.68;30.63;97438.59;5093792;28;20052;-65
2023/10/03 08:46:31;;;;;;;11.27;4.25;;;;;;;24.72;32.83;97435.50;5093466;28;20129;-62
2023/10/03 08:49:08;;;;;;;8.05;4.25;;;;;;;24.78;30.61;97433.31;5093481;28;20059;-62
2023/10/03 08:51:36;;;;;;;13.80;5.07;;;;;;;24.37;31.60;97428.56;5093485;28;20044;-63
2023/10/03 08:54:10;;;;;;;10.77;5.45;;;;;;;24.27;31.02;97422.25;5093447;28;20109;-64
2023/10/03 08:56:40;;;;;;;10.45;4.47;;;;;;;24.27;32.58;97422.25;5093388;28;20086;-63
2023/10/03 08:59:08;;;;;;;10.50;5.00;;;;;;;24.61;32.12;97423.03;5093310;28;20454;-63
2023/10/03 09:01:38;;;;;;;11.23;4.75;;;;;;;24.87;30.68;97413.88;5093100;28;20050;-65
2023/10/03 09:04:15;;;;;;;13.63;4.85;;;;;;;24.98;30.93;97421.84;5093189;28;20502;-62
2023/10/03 09:06:43;;;;;;;8.73;4.57;;;;;;;24.75;30.36;97421.06;5093273;28;20052;-66
2023/10/03 09:09:14;;;;;;;9.38;5.07;;;;;;;24.40;31.23;97422.09;5093391;28;20055;-64
2023/10/03 09:11:42;;;;;;;;;;;;;;;24.21;31.64;97418.25;5093535;28;20062;-63
2023/10/03 09:14:12;;;;;;;17.23;5.25;;;;;;;24.25;31.22;97421.50;5093098;28;19978;-65
2023/10/03 09:16:39;;;;;;;13.60;5.43;;;;;;;24.17;30.90;97414.97;5093383;28;20047;-63
2023/10/03 09:19:09;;;;;;;11.27;5.53;;;;;;;24.34;31.63;97410.94;5093240;28;20287;-66
2023/10/03 09:21:37;;;;;;;14.50;5.90;;;;;;;24.42;31.38;97414.81;5093218;28;20056;-66
2023/10/03 09:24:14;;;;;;;12.10;5.45;;;;;;;24.46;31.89;97414.44;5093078;28;20074;-64
2023/10/03 09:26:46;;;;;;;15.65;4.90;;;;;;;24.77;31.44;97408.38;5093064;28;20493;-64
2023/10/03 09:29:18;;;;;;;10.80;5.20;;;;;;;24.74;30.88;97408.63;5093016;28;20052;-64
2023/10/03 09:31:49;;;;;;;10.32;4.47;;;;;;;24.62;31.50;97413.16;5092935;28;20063;-61
2023/10/03 09:34:17;;;;;;;13.25;5.38;;;;;;;24.40;30.65;97414.94;5093046;28;20059;-63
2023/10/03 09:36:44;;;;;;;17.00;5.60;;;;;;;24.30;30.83;97411.31;5092881;28;20410;-65
2023/10/03 09:39:20;;;;;;;10.40;4.90;;;;;;;24.39;31.49;97407.91;5092912;28;20048;-64
2023/10/03 09:41:54;;;;;;;16.02;5.50;;;;;;;24.67;30.78;97410.97;5097032;28;20382;-65
2023/10/03 09:44:29;;;;;;;18.35;5.45;;;;;;;24.82;30.19;97406.19;5097040;28;20112;-64
2023/10/03 09:47:00;;;;;;;13.60;5.50;;;;;;;24.95;29.74;97399.84;5097097;28;20070;-66
2023/10/03 09:49:36;;;;;;;16.67;5.50;;;;;;;25.13;28.95;97394.75;5096830;28;20044;-66
2023/10/03 09:52:07;;;;;;;9.57;4.68;;;;;;;25.33;29.69;97393.09;5096728;28;20054;-65
2023/10/03 09:54:36;;;;;;;10.52;5.40;;;;;;;25.58;29.49;97390.97;5096734;28;20093;-64
2023/10/03 09:57:16;;;;;;;10.70;5.40;;;;;;;25.66;28.08;97387.66;5096699;28;20093;-62
2023/10/03 09:59:46;;;;;;;19.00;5.33;;;;;;;25.58;28.74;97384.75;5096736;28;20138;-65
2023/10/03 10:02:15;;;;;;;9.90;5.10;;;;;;;25.64;29.57;97386.09;5096417;28;20081;-66
2023/10/03 10:04:50;;;;;;;9.48;5.18;;;;;;;25.94;28.40;97390.59;5096583;28;20083;-64
2023/10/03 10:07:29;;;;;;;11.23;4.68;;;;;;;25.90;28.36;97380.28;5096561;28;20123;-66
2023/10/03 10:10:07;;;;;;;11.57;4.90;;;;;;;25.92;28.54;97381.00;5096550;28;20048;-64
2023/10/03 10:12:42;;;;;;;18.95;5.78;;;;;;;25.49;28.45;97387.25;5096292;28;20059;-64
2023/10/03 10:15:17;;;;;;;14.10;5.30;;;;;;;24.80;28.89;97381.38;5096724;28;20101;-65
2023/10/03 10:17:46;;;;;;;10.65;4.82;;;;;;;24.46;28.95;97377.03;5096319;28;20127;-65
2023/10/03 10:20:21;;;;;;;10.15;5.25;;;;;;;24.54;30.27;97373.72;5096297;28;20524;-62
2023/10/03 10:23:17;;;;;;;12.93;5.18;;;;;;;24.43;29.69;97365.72;5096314;28;20044;-65
2023/10/03 10:25:56;;;;;;;8.38;5.15;;;;;;;24.40;29.71;97355.28;5096395;28;20094;-64
2023/10/03 10:28:36;;;;;;;8.95;4.90;;;;;;;24.59;30.34;97357.31;5096125;28;20132;-62
2023/10/03 10:31:25;;;;;;;11.07;5.65;;;;;;;24.29;28.97;97351.66;5095944;28;20048;-62
2023/10/03 10:34:46;;;;;;;14.60;5.40;;;;;;;23.88;29.37;97350.47;5096192;28;20048;-64
2023/10/03 10:37:17;;;;;;;15.98;6.10;;;;;;;23.54;30.36;97344.16;5095884;28;20058;-63
2023/10/03 10:40:17;;;;;;;10.38;5.18;;;;;;;23.34;30.84;97330.56;5095966;28;20094;-66
2023/10/03 10:43:11;;;;;;;11.43;5.65;;;;;;;23.18;31.64;97328.22;5096170;28;20086;-64
2023/10/03 10:45:38;;;;;;;13.27;5.40;;;;;;;23.17;31.21;97328.31;5095809;28;20055;-66
2023/10/03 10:48:06;;;;;;;12.88;5.32;;;;;;;23.11;30.48;97324.31;5095808;28;20101;-63
2023/10/03 10:51:07;;;;;;;9.38;4.55;;;;;;;23.15;30.73;97316.94;5095768;28;20044;-65
2023/10/03 10:53:44;;;;;;;13.68;5.07;;;;;;;23.14;32.04;97324.09;5090826;28;20048;-65
2023/10/03 10:56:12;;;;;;;11.18;4.75;;;;;;;23.30;31.80;97321.06;5095692;28;20113;-64
2023/10/03 10:58:47;;;;;;;12.60;4.60;;;;;;;23.52;32.49;97322.09;5095549;28;20044;-62
2023/10/03 11:01:16;;;;;;;8.07;4.50;;;;;;;23.80;31.12;97324.38;5095469;28;20131;-65
2023/10/03 11:03:44;;;;;;;9.85;5.25;;;;;;;23.81;31.39;97318.09;5095198;28;20575;-62
2023/10/03 11:06:16;;;;;;;11.68;5.75;;;;;;;23.90;30.81;97313.81;5095592;28;20048;-65
2023/10/03 11:08:47;;;;;;;14.70;5.38;;;;;;;24.11;30.54;97304.06;5095220;28;20051;-63
2023/10/03 11:11:15;;;;;;;12.35;5.18;;;;;;;24.07;31.06;97307.09;5095400;28;20048;-65
2023/10/03 11:13:47;;;;;;;9.30;4.72;;;;;;;24.05;30.23;97303.72;5095204;28;20562;-62
2023/10/03 11:16:24;;;;;;;15.05;5.05;;;;;;;23.99;31.43;97305.06;5095479;28;20517;-64
2023/10/03 11:18:54;;;;;;;10.52;4.75;;;;;;;24.10;30.54;97296.16;5095186;28;20055;-63
2023/10/03 11:21:22;;;;;;;13.23;5.10;;;;;;;24.23;30.06;97296.88;5095233;28;20123;-65
2023/10/03 11:24:14;;;;;;;12.38;5.35;;;;;;;24.38;30.09;97293.91;5094990;28;20048;-62
2023/10/03 11:26:49;;;;;;;10.93;5.38;;;;;;;24.19;29.70;97291.91;5095106;28;20066;-65
2023/10/03 11:29:35;;;;;;;12.32;5.50;;;;;;;24.06;30.76;97292.91;5095244;28;20048;-64
2023/10/03 11:32:05;;;;;;;12.45;5.40;;;;;;;24.13;29.87;97285.25;5094767;28;20103;-63
2023/10/03 11:34:35;;;;;;;12.02;5.05;;;;;;;24.19;30.02;97281.22;5094958;28;20126;-65
2023/10/03 11:37:04;;;;;;;17.50;5.50;;;;;;;24.06;30.31;97286.72;5094771;28;20047;-66
2023/10/03 11:39:37;;;;;;;9.52;5.15;;;;;;;24.10;30.34;97281.00;5094763;28;20044;-64
2023/10/03 11:42:09;;;;;;;15.90;6.10;;;;;;;24.15;30.42;97277.13;5094859;28;20127;-65
2023/10/03 11:44:37;;;;;;;11.60;5.05;;;;;;;24.09;30.38;97281.13;5095155;28;20087;-66
2023/10/03 11:47:06;;;;;;;14.90;5.28;;;;;;;23.84;30.14;97289.28;5094667;28;20101;-66